Portada
METAR-TAF:

METAR-TAF

Aeropuertos :

Aeropuerto de Málaga-Costa del Sol

Málaga, España

latitud: 36-40N, longitud: 004-29W, altitud: 16 m

Observación

El informe se hizo hace 25 minutos, a las 00:30 UTC
Viento 6 kt del sureste, variando entre este y sur-sureste
Temperatura 16°C
Humedad 72%
Presión 1017 hPa
Visibilidad 10 km o más
Cielo nuboso a una altura de 2800 ft

METAR: LEMG 200030Z 13006KT 100V160 9999 BKN028 16/11 Q1017 NOSIG

Hora: 02:55 (00:55 UTC)

Pronóstico

El informe se hizo hace 1 hora y 55 minutos, a las 23:00 UTC
Pronóstico válido del 20 a las 00 UTC al 20 a las 24 UTC
Viento 9 kt del sureste
Visibilidad 10 km o más
Escasas nubes a una altura de 4000 ft

TAF: LEMG 192300Z 2000/2024 13009KT 9999 FEW040 TX19/2014Z TN13/2007Z

Observaciones y pronósticos meteorológicos de más de 4000 aeropuertos (mensajes METAR y TAF).

Los puntos amarillos y rojos representan las estaciones disponibles.

Ponga el ratón en el punto deseado para ver el nombre de la estación.

Haga clic para ver las observaciones y los pronósticos meteorológicos.

Para cambiar el mapa : haga clic en los botones verdes con una cruz de color negro para hacer un zoom, en el botón verde con un guión para alejar o en las flechas verdes para mapas adyacentes.


METAR-TAF: